Time;durP1;ratioP1;P1;durP2;ratioP2;P2;SDS_P1;SDS_P2;PMS_P1;PMS_P2;Temp;Humidity;BMP_temperature;BMP_pressure;BME280_temperature;BME280_humidity;BME280_pressure;Samples;Min_cycle;Max_cycle;Signal;HPM_P1;HPM_P2
2022/02/18 00:01:01;;;;;;;20.92;4.13;;;;;;;;;;5029113;28;20390;-72
2022/02/18 00:03:27;;;;;;;16.58;1.92;;;;;;;;;;5031988;28;20021;-72
2022/02/18 00:05:52;;;;;;;23.13;3.70;;;;;;;;;;5032418;28;20039;-73
2022/02/18 00:08:17;;;;;;;44.25;4.07;;;;;;;;;;5032015;28;20393;-73
2022/02/18 00:10:43;;;;;;;30.00;5.45;;;;;;;;;;5032057;28;20121;-73
2022/02/18 00:13:08;;;;;;;26.05;3.35;;;;;;;;;;5031660;28;20037;-73
2022/02/18 00:15:33;;;;;;;29.17;3.78;;;;;;;;;;5031113;28;20101;-72
2022/02/18 00:18:01;;;;;;;21.95;3.45;;;;;;;;;;5029980;28;20017;-73
2022/02/18 00:20:26;;;;;;;22.55;2.85;;;;;;;;;;5020542;28;20021;-73
2022/02/18 00:22:52;;;;;;;21.48;4.55;;;;;;;;;;5031587;28;20072;-73
2022/02/18 00:25:17;;;;;;;24.10;3.27;;;;;;;;;;5031489;28;20017;-73
2022/02/18 00:27:42;;;;;;;27.97;5.43;;;;;;;;;;5031931;28;20350;-74
2022/02/18 00:30:08;;;;;;;19.92;4.40;;;;;;;;;;5031991;28;20264;-73
2022/02/18 00:32:34;;;;;;;24.92;3.35;;;;;;;;;;5031366;28;20104;-73
2022/02/18 00:35:00;;;;;;;29.00;3.78;;;;;;;;;;5029215;28;20104;-73
2022/02/18 00:37:25;;;;;;;20.48;3.47;;;;;;;;;;5013507;28;20041;-73
2022/02/18 00:39:51;;;;;;;28.67;5.13;;;;;;;;;;5027402;28;20032;-73
2022/02/18 00:42:16;;;;;;;37.30;4.15;;;;;;;;;;5031598;28;20030;-73
2022/02/18 00:44:42;;;;;;;22.42;4.63;;;;;;;;;;5032356;28;20022;-73
2022/02/18 00:47:07;;;;;;;20.10;3.63;;;;;;;;;;5031296;28;20029;-73
2022/02/18 00:49:32;;;;;;;24.42;3.45;;;;;;;;;;5024667;28;20018;-73
2022/02/18 00:51:58;;;;;;;20.80;4.38;;;;;;;;;;5031271;28;20530;-73
2022/02/18 00:54:23;;;;;;;34.65;4.90;;;;;;;;;;5032026;28;20025;-73
2022/02/18 00:56:50;;;;;;;26.50;4.10;;;;;;;;;;5032317;28;20032;-73
2022/02/18 00:59:16;;;;;;;32.35;4.22;;;;;;;;;;5027398;28;20279;-73
2022/02/18 01:01:41;;;;;;;25.80;4.28;;;;;;;;;;5030628;28;20024;-73
2022/02/18 01:04:06;;;;;;;20.33;4.27;;;;;;;;;;5031088;28;20037;-73
2022/02/18 01:06:31;;;;;;;20.10;4.00;;;;;;;;;;5031835;28;20769;-72
2022/02/18 01:08:58;;;;;;;31.48;4.38;;;;;;;;;;5032338;28;20265;-73
2022/02/18 01:11:23;;;;;;;30.95;6.45;;;;;;;;;;5031034;28;20072;-73
2022/02/18 01:13:48;;;;;;;42.17;4.85;;;;;;;;;;5031237;28;20025;-70
2022/02/18 01:16:14;;;;;;;29.70;4.00;;;;;;;;;;5031206;28;20128;-73
2022/02/18 01:18:39;;;;;;;27.23;3.92;;;;;;;;;;5031403;28;20316;-73
2022/02/18 01:21:05;;;;;;;34.72;4.18;;;;;;;;;;5031142;28;20053;-71
2022/02/18 01:23:30;;;;;;;31.00;5.30;;;;;;;;;;5031366;28;20081;-73
2022/02/18 01:25:55;;;;;;;22.77;4.23;;;;;;;;;;5030190;28;20288;-72
2022/02/18 01:28:21;;;;;;;32.00;3.90;;;;;;;;;;5032393;28;20267;-73
2022/02/18 01:30:46;;;;;;;22.83;3.33;;;;;;;;;;5029423;28;20033;-72
2022/02/18 01:33:11;;;;;;;23.48;4.28;;;;;;;;;;5030053;28;20028;-72
2022/02/18 01:35:36;;;;;;;11.38;2.60;;;;;;;;;;5025233;28;20050;-73
2022/02/18 01:38:02;;;;;;;18.47;2.97;;;;;;;;;;5031977;28;20032;-72
2022/02/18 01:40:27;;;;;;;36.50;4.72;;;;;;;;;;5034878;28;20636;-73
2022/02/18 01:42:53;;;;;;;35.85;3.70;;;;;;;;;;5034819;28;20025;-71
2022/02/18 01:45:18;;;;;;;43.90;4.22;;;;;;;;;;5031530;28;20497;-73
2022/02/18 01:47:43;;;;;;;20.55;3.08;;;;;;;;;;5029199;28;20478;-71
2022/02/18 01:50:09;;;;;;;18.47;3.77;;;;;;;;;;5035520;28;20075;-73
2022/02/18 01:52:39;;;;;;;25.00;3.20;;;;;;;;;;5034975;28;20780;-73
2022/02/18 01:55:10;;;;;;;39.05;4.90;;;;;;;;;;5023369;28;20380;-72
2022/02/18 01:57:35;;;;;;;33.75;4.20;;;;;;;;;;5032972;28;20033;-73
2022/02/18 02:00:01;;;;;;;39.80;4.18;;;;;;;;;;5031479;28;20029;-73
2022/02/18 02:02:26;;;;;;;32.08;3.40;;;;;;;;;;5034114;28;20018;-73
2022/02/18 02:04:51;;;;;;;47.90;4.93;;;;;;;;;;5033577;28;20017;-73
2022/02/18 02:07:16;;;;;;;23.17;3.47;;;;;;;;;;5030154;28;20745;-72
2022/02/18 02:09:42;;;;;;;22.65;4.72;;;;;;;;;;5033280;28;20264;-73
2022/02/18 02:12:07;;;;;;;36.63;6.60;;;;;;;;;;5032560;28;20025;-73
2022/02/18 02:14:32;;;;;;;34.97;5.18;;;;;;;;;;5033652;28;20156;-72
2022/02/18 02:16:58;;;;;;;40.13;4.83;;;;;;;;;;5031687;28;20433;-73
2022/02/18 02:19:23;;;;;;;33.42;4.32;;;;;;;;;;5028030;28;20292;-73
2022/02/18 02:21:50;;;;;;;30.40;4.75;;;;;;;;;;5027657;28;20049;-72
2022/02/18 02:24:15;;;;;;;27.33;4.55;;;;;;;;;;5032978;28;20017;-72
2022/02/18 02:26:41;;;;;;;41.60;4.88;;;;;;;;;;5032745;28;20542;-72
2022/02/18 02:29:09;;;;;;;30.27;4.38;;;;;;;;;;5032981;28;20489;-72
2022/02/18 02:31:34;;;;;;;32.80;4.75;;;;;;;;;;5032971;28;20064;-73
2022/02/18 02:34:00;;;;;;;48.27;5.07;;;;;;;;;;5032813;28;20026;-71
2022/02/18 02:36:25;;;;;;;26.20;3.93;;;;;;;;;;5032399;28;20351;-72
2022/02/18 02:38:51;;;;;;;46.47;4.70;;;;;;;;;;5022480;28;20334;-72
2022/02/18 02:41:16;;;;;;;44.90;7.10;;;;;;;;;;5016378;28;20024;-71
2022/02/18 02:43:41;;;;;;;20.50;3.50;;;;;;;;;;5032519;28;20021;-73
2022/02/18 02:46:06;;;;;;;30.05;4.80;;;;;;;;;;5032304;28;20107;-71
2022/02/18 02:48:32;;;;;;;21.92;4.15;;;;;;;;;;5032528;28;20026;-72
2022/02/18 02:50:57;;;;;;;29.05;4.38;;;;;;;;;;5031216;28;20036;-71
2022/02/18 02:53:22;;;;;;;27.42;4.68;;;;;;;;;;5030295;28;20025;-72
2022/02/18 02:55:47;;;;;;;46.00;6.90;;;;;;;;;;5031695;28;20025;-70
2022/02/18 02:58:13;;;;;;;30.43;5.30;;;;;;;;;;5029027;28;20485;-71
2022/02/18 03:00:38;;;;;;;27.38;3.78;;;;;;;;;;5030523;28;20256;-71
2022/02/18 03:03:03;;;;;;;30.80;4.60;;;;;;;;;;5031476;28;20653;-71
2022/02/18 03:05:28;;;;;;;35.65;5.50;;;;;;;;;;5031688;28;20418;-71
2022/02/18 03:07:53;;;;;;;33.53;6.53;;;;;;;;;;5031858;28;20100;-71
2022/02/18 03:10:18;;;;;;;33.00;3.92;;;;;;;;;;5031599;28;20075;-70
2022/02/18 03:12:44;;;;;;;27.77;4.43;;;;;;;;;;5014088;28;20113;-70
2022/02/18 03:15:09;;;;;;;28.83;4.30;;;;;;;;;;5030959;28;20025;-71
2022/02/18 03:17:34;;;;;;;25.23;4.88;;;;;;;;;;5031078;28;20061;-71
2022/02/18 03:20:00;;;;;;;31.90;4.82;;;;;;;;;;5030334;28;20025;-70
2022/02/18 03:22:25;;;;;;;24.02;3.80;;;;;;;;;;5031062;28;20026;-70
2022/02/18 03:24:50;;;;;;;26.02;4.07;;;;;;;;;;5024686;28;20036;-70
2022/02/18 03:27:16;;;;;;;32.80;4.00;;;;;;;;;;5030674;28;20021;-71
2022/02/18 03:29:41;;;;;;;23.20;3.63;;;;;;;;;;5031977;28;20625;-70
2022/02/18 03:32:06;;;;;;;27.25;3.97;;;;;;;;;;5031956;28;20041;-70
2022/02/18 03:34:33;;;;;;;30.77;5.65;;;;;;;;;;5031535;28;20071;-70
2022/02/18 03:36:58;;;;;;;37.55;5.55;;;;;;;;;;5027820;28;20017;-70
2022/02/18 03:39:23;;;;;;;26.63;4.07;;;;;;;;;;5028078;28;20393;-71
2022/02/18 03:41:48;;;;;;;32.90;4.82;;;;;;;;;;5007140;28;20192;-70
2022/02/18 03:44:14;;;;;;;21.45;3.80;;;;;;;;;;5030711;28;20048;-71
2022/02/18 03:46:39;;;;;;;23.80;3.80;;;;;;;;;;5030665;28;20029;-70
2022/02/18 03:49:04;;;;;;;24.30;4.22;;;;;;;;;;5028654;28;20295;-71
2022/02/18 03:51:29;;;;;;;15.17;2.87;;;;;;;;;;5030270;28;20025;-70
2022/02/18 03:53:54;;;;;;;15.75;2.22;;;;;;;;;;5030441;28;20264;-70
2022/02/18 03:56:20;;;;;;;18.17;2.80;;;;;;;;;;5030224;28;20504;-70
2022/02/18 03:58:45;;;;;;;5.70;2.40;;;;;;;;;;5026070;28;20369;-70
2022/02/18 04:01:11;;;;;;;21.50;4.03;;;;;;;;;;5011173;28;20144;-71
2022/02/18 04:03:36;;;;;;;33.30;4.65;;;;;;;;;;5030607;28;20385;-71
2022/02/18 04:06:01;;;;;;;38.58;2.45;;;;;;;;;;5030349;28;20025;-69
2022/02/18 04:08:26;;;;;;;31.90;2.55;;;;;;;;;;5031037;28;20022;-73
2022/02/18 04:10:52;;;;;;;25.00;3.67;;;;;;;;;;5030681;28;20080;-70
2022/02/18 04:13:17;;;;;;;9.88;2.70;;;;;;;;;;5029978;28;20025;-70
2022/02/18 04:15:42;;;;;;;32.95;4.45;;;;;;;;;;5030257;28;20429;-69
2022/02/18 04:18:07;;;;;;;19.08;2.92;;;;;;;;;;5022118;28;20033;-70
2022/02/18 04:20:33;;;;;;;22.63;2.78;;;;;;;;;;5028206;28;20022;-72
2022/02/18 04:22:58;;;;;;;25.83;3.50;;;;;;;;;;5015947;28;20022;-69
2022/02/18 04:25:23;;;;;;;19.50;3.67;;;;;;;;;;5024465;28;20117;-71
2022/02/18 04:27:52;;;;;;;20.27;3.92;;;;;;;;;;5021311;28;20294;-71
2022/02/18 04:30:18;;;;;;;26.15;3.65;;;;;;;;;;5029372;28;20069;-71
2022/02/18 04:32:43;;;;;;;27.88;3.72;;;;;;;;;;5028206;28;20057;-71
2022/02/18 04:35:08;;;;;;;30.55;4.03;;;;;;;;;;5029881;28;20535;-71
2022/02/18 04:37:33;;;;;;;28.23;3.85;;;;;;;;;;5029013;28;20059;-71
2022/02/18 04:39:59;;;;;;;15.90;3.63;;;;;;;;;;5026956;28;20117;-71
2022/02/18 04:42:24;;;;;;;25.67;3.53;;;;;;;;;;5010335;28;20264;-70
2022/02/18 04:44:49;;;;;;;27.65;3.50;;;;;;;;;;5022826;28;20359;-72
2022/02/18 04:47:14;;;;;;;13.45;1.60;;;;;;;;;;5030079;28;20421;-72
2022/02/18 04:49:39;;;;;;;20.65;4.40;;;;;;;;;;5027368;28;20167;-71
2022/02/18 04:52:05;;;;;;;17.80;2.07;;;;;;;;;;5027826;28;20025;-72
2022/02/18 04:54:30;;;;;;;20.75;2.83;;;;;;;;;;5027712;28;20350;-71
2022/02/18 04:56:55;;;;;;;15.40;1.80;;;;;;;;;;5026074;28;20037;-70
2022/02/18 04:59:20;;;;;;;13.93;3.00;;;;;;;;;;5024407;28;20315;-70
2022/02/18 05:01:46;;;;;;;12.77;2.70;;;;;;;;;;5019622;28;20028;-70
2022/02/18 05:04:11;;;;;;;13.73;2.55;;;;;;;;;;5022395;28;20380;-69
2022/02/18 05:06:36;;;;;;;22.92;2.47;;;;;;;;;;5029090;28;20025;-71
2022/02/18 05:09:02;;;;;;;15.23;3.97;;;;;;;;;;5029834;28;20044;-71
2022/02/18 05:11:27;;;;;;;1.55;1.13;;;;;;;;;;5028820;28;20099;-71
2022/02/18 05:13:52;;;;;;;16.13;2.03;;;;;;;;;;5028861;28;20436;-70
2022/02/18 05:16:18;;;;;;;16.30;2.33;;;;;;;;;;5028726;28;20268;-71
2022/02/18 05:18:43;;;;;;;20.67;2.97;;;;;;;;;;5027643;28;20022;-70
2022/02/18 05:21:08;;;;;;;29.13;3.22;;;;;;;;;;5028542;28;20268;-71
2022/02/18 05:23:34;;;;;;;22.52;4.82;;;;;;;;;;5026815;28;20474;-71
2022/02/18 05:25:59;;;;;;;12.05;2.15;;;;;;;;;;5028900;28;20493;-70
2022/02/18 05:28:24;;;;;;;19.98;2.50;;;;;;;;;;5030284;28;20044;-70
2022/02/18 05:30:49;;;;;;;12.80;2.63;;;;;;;;;;5011936;28;20021;-71
2022/02/18 05:33:14;;;;;;;12.95;2.42;;;;;;;;;;5031021;28;20762;-71
2022/02/18 05:35:40;;;;;;;16.50;2.13;;;;;;;;;;5031512;28;20021;-72
2022/02/18 05:38:05;;;;;;;10.95;1.48;;;;;;;;;;5020922;28;20022;-71
2022/02/18 05:40:31;;;;;;;10.32;1.55;;;;;;;;;;5025176;28;20115;-72
2022/02/18 05:42:56;;;;;;;10.27;2.15;;;;;;;;;;5027974;28;20074;-71
2022/02/18 05:45:21;;;;;;;8.73;2.13;;;;;;;;;;5028230;28;20739;-72
2022/02/18 05:47:46;;;;;;;18.00;1.95;;;;;;;;;;5029544;28;20025;-71
2022/02/18 05:50:12;;;;;;;5.60;0.67;;;;;;;;;;5029975;28;20421;-72
2022/02/18 05:52:38;;;;;;;11.38;1.55;;;;;;;;;;5028928;28;20272;-71
2022/02/18 05:55:04;;;;;;;18.48;3.47;;;;;;;;;;5026391;28;20025;-72
2022/02/18 05:57:29;;;;;;;16.88;3.42;;;;;;;;;;5025038;28;20144;-72
2022/02/18 05:59:54;;;;;;;14.60;2.65;;;;;;;;;;5025552;28;20120;-71
2022/02/18 06:02:20;;;;;;;14.02;2.60;;;;;;;;;;5024374;28;20022;-70
2022/02/18 06:04:45;;;;;;;18.65;2.92;;;;;;;;;;5024804;28;20026;-71
2022/02/18 06:07:10;;;;;;;21.95;2.35;;;;;;;;;;5027228;28;20053;-71
2022/02/18 06:09:35;;;;;;;14.13;2.00;;;;;;;;;;5028996;28;20325;-71
2022/02/18 06:12:00;;;;;;;15.10;1.73;;;;;;;;;;5027152;28;20288;-72
2022/02/18 06:14:26;;;;;;;9.88;1.50;;;;;;;;;;5027418;28;20037;-73
2022/02/18 06:16:51;;;;;;;15.95;2.55;;;;;;;;;;5031906;28;20079;-72
2022/02/18 06:19:16;;;;;;;14.35;2.10;;;;;;;;;;5023073;28;20033;-72
2022/02/18 06:21:42;;;;;;;6.82;1.95;;;;;;;;;;5033215;28;20014;-71
2022/02/18 06:24:08;;;;;;;21.25;2.88;;;;;;;;;;5032533;28;20040;-72
2022/02/18 06:26:33;;;;;;;25.27;2.85;;;;;;;;;;5028590;28;20718;-73
2022/02/18 06:28:58;;;;;;;13.33;2.00;;;;;;;;;;5031485;28;20148;-72
2022/02/18 06:31:24;;;;;;;33.80;2.90;;;;;;;;;;5032219;28;20304;-73
2022/02/18 06:33:49;;;;;;;30.95;3.58;;;;;;;;;;5022195;28;20026;-72
2022/02/18 06:36:14;;;;;;;23.45;2.78;;;;;;;;;;5027623;28;20044;-72
2022/02/18 06:38:42;;;;;;;18.70;1.98;;;;;;;;;;5030546;28;20052;-72
2022/02/18 06:41:08;;;;;;;31.05;3.45;;;;;;;;;;5030267;28;20113;-72
2022/02/18 06:43:33;;;;;;;20.98;2.70;;;;;;;;;;5032012;28;20116;-72
2022/02/18 06:45:58;;;;;;;25.15;3.35;;;;;;;;;;5032165;28;20022;-71
2022/02/18 06:48:23;;;;;;;37.47;4.90;;;;;;;;;;5030547;28;20025;-72
2022/02/18 06:50:49;;;;;;;28.02;3.28;;;;;;;;;;5032032;28;20260;-72
2022/02/18 06:53:14;;;;;;;29.42;2.13;;;;;;;;;;5012109;28;20420;-71
2022/02/18 06:55:39;;;;;;;18.63;3.57;;;;;;;;;;5029689;28;20076;-71
2022/02/18 06:58:05;;;;;;;29.08;3.72;;;;;;;;;;5029531;28;20286;-72
2022/02/18 07:00:30;;;;;;;22.95;3.08;;;;;;;;;;5028093;28;20026;-70
2022/02/18 07:02:55;;;;;;;14.57;2.60;;;;;;;;;;5026845;28;20072;-72
2022/02/18 07:05:21;;;;;;;20.08;2.55;;;;;;;;;;5029867;28;20064;-71
2022/02/18 07:07:46;;;;;;;25.90;2.65;;;;;;;;;;5011701;28;20394;-72
2022/02/18 07:10:12;;;;;;;11.15;1.77;;;;;;;;;;5029282;28;20036;-70
2022/02/18 07:12:38;;;;;;;13.43;2.50;;;;;;;;;;5031306;28;20013;-71
2022/02/18 07:15:04;;;;;;;12.23;1.92;;;;;;;;;;5029030;28;20032;-71
2022/02/18 07:17:30;;;;;;;20.92;2.22;;;;;;;;;;5030256;28;20087;-71
2022/02/18 07:19:55;;;;;;;11.63;3.25;;;;;;;;;;5026694;28;20044;-71
2022/02/18 07:22:21;;;;;;;23.02;4.10;;;;;;;;;;5022933;28;20466;-72
2022/02/18 07:24:47;;;;;;;24.90;2.47;;;;;;;;;;5028842;28;20048;-72
2022/02/18 07:27:13;;;;;;;9.50;2.42;;;;;;;;;;5029362;28;20025;-71
2022/02/18 07:29:38;;;;;;;14.23;2.67;;;;;;;;;;5031297;28;20044;-72
2022/02/18 07:32:03;;;;;;;18.10;2.45;;;;;;;;;;5028998;28;20053;-72
2022/02/18 07:34:28;;;;;;;14.43;3.10;;;;;;;;;;5031059;28;20064;-70
2022/02/18 07:36:54;;;;;;;6.78;2.25;;;;;;;;;;5031177;28;20044;-71
2022/02/18 07:39:19;;;;;;;25.42;3.88;;;;;;;;;;5030916;28;20072;-70
2022/02/18 07:41:44;;;;;;;13.98;2.22;;;;;;;;;;5032221;28;20037;-71
2022/02/18 07:44:09;;;;;;;11.37;1.47;;;;;;;;;;5027500;28;20395;-71
2022/02/18 07:46:34;;;;;;;19.48;3.10;;;;;;;;;;5026089;28;20272;-71
2022/02/18 07:49:00;;;;;;;23.33;3.07;;;;;;;;;;5030101;28;20107;-70
2022/02/18 07:51:25;;;;;;;19.95;3.15;;;;;;;;;;5028561;28;20281;-73
2022/02/18 07:53:50;;;;;;;15.50;2.53;;;;;;;;;;5029646;28;20033;-71
2022/02/18 07:56:15;;;;;;;28.93;4.93;;;;;;;;;;5030919;28;20359;-72
2022/02/18 07:58:41;;;;;;;19.92;4.28;;;;;;;;;;5030290;28;20287;-69
2022/02/18 08:01:06;;;;;;;27.67;3.75;;;;;;;;;;5011641;28;20513;-70
2022/02/18 08:03:32;;;;;;;14.20;2.45;;;;;;;;;;5027882;28;20018;-71
2022/02/18 08:05:58;;;;;;;33.95;3.30;;;;;;;;;;5030075;28;20489;-71
2022/02/18 08:08:24;;;;;;;16.25;2.45;;;;;;;;;;5025703;28;20021;-71
2022/02/18 08:10:50;;;;;;;16.30;2.17;;;;;;;;;;5030353;28;20522;-70
2022/02/18 08:13:15;;;;;;;17.02;2.92;;;;;;;;;;5028257;28;20021;-73
2022/02/18 08:15:40;;;;;;;5.55;1.45;;;;;;;;;;5031591;28;20028;-72
2022/02/18 08:18:05;;;;;;;6.18;1.65;;;;;;;;;;5029731;28;20037;-71
2022/02/18 08:20:31;;;;;;;17.92;2.92;;;;;;;;;;5030463;28;20615;-71
2022/02/18 08:22:56;;;;;;;17.75;2.88;;;;;;;;;;5030803;28;20033;-71
2022/02/18 08:25:21;;;;;;;24.73;4.53;;;;;;;;;;5028160;28;20099;-70
2022/02/18 08:27:46;;;;;;;15.07;3.60;;;;;;;;;;5030606;28;20292;-70
2022/02/18 08:30:12;;;;;;;16.50;3.40;;;;;;;;;;5019980;28;20339;-70
2022/02/18 08:32:37;;;;;;;27.50;4.20;;;;;;;;;;5030113;28;20279;-71
2022/02/18 08:35:03;;;;;;;13.38;2.58;;;;;;;;;;5030007;28;20039;-72
2022/02/18 08:37:28;;;;;;;13.60;2.67;;;;;;;;;;5030234;28;20406;-71
2022/02/18 08:39:53;;;;;;;6.73;1.77;;;;;;;;;;5030418;28;20036;-70
2022/02/18 08:42:18;;;;;;;12.03;3.10;;;;;;;;;;5029664;28;20668;-71
2022/02/18 08:44:43;;;;;;;15.68;3.70;;;;;;;;;;5031070;28;20272;-71
2022/02/18 08:47:08;;;;;;;17.98;1.60;;;;;;;;;;5029637;28;20112;-71
2022/02/18 08:49:34;;;;;;;13.73;3.50;;;;;;;;;;5029289;28;20164;-70
2022/02/18 08:51:59;;;;;;;13.40;2.92;;;;;;;;;;5030367;28;20052;-70
2022/02/18 08:54:24;;;;;;;31.58;4.70;;;;;;;;;;5030568;28;20044;-72
2022/02/18 08:56:50;;;;;;;7.47;2.03;;;;;;;;;;5029983;28;20032;-70
2022/02/18 08:59:16;;;;;;;9.32;2.05;;;;;;;;;;5030113;28;20458;-71
2022/02/18 09:01:41;;;;;;;24.15;3.17;;;;;;;;;;5029026;28;20401;-69
2022/02/18 09:04:06;;;;;;;15.07;4.07;;;;;;;;;;5024889;28;20025;-70
2022/02/18 09:06:34;;;;;;;12.38;2.28;;;;;;;;;;5029726;28;20629;-71
2022/02/18 09:08:59;;;;;;;24.95;3.60;;;;;;;;;;5030179;28;20018;-71
2022/02/18 09:11:25;;;;;;;11.32;1.27;;;;;;;;;;5030640;28;20017;-70
2022/02/18 09:13:50;;;;;;;11.30;2.23;;;;;;;;;;5030976;28;20091;-72
2022/02/18 09:16:15;;;;;;;8.27;1.65;;;;;;;;;;5029659;28;20306;-71
2022/02/18 09:18:41;;;;;;;12.43;1.30;;;;;;;;;;5029606;28;20053;-72
2022/02/18 09:21:07;;;;;;;5.68;1.52;;;;;;;;;;5029798;28;20044;-71
2022/02/18 09:23:32;;;;;;;8.10;1.65;;;;;;;;;;5029468;28;20021;-71
2022/02/18 09:25:57;;;;;;;11.35;3.10;;;;;;;;;;5028667;28;20028;-71
2022/02/18 09:28:23;;;;;;;9.70;1.90;;;;;;;;;;5029669;28;20079;-71
2022/02/18 09:30:51;;;;;;;12.02;1.95;;;;;;;;;;5030310;28;20257;-72
2022/02/18 09:33:17;;;;;;;5.00;2.85;;;;;;;;;;5017375;28;20529;-72
2022/02/18 09:35:42;;;;;;;10.77;1.27;;;;;;;;;;5028740;28;20021;-73
2022/02/18 09:38:08;;;;;;;8.73;1.15;;;;;;;;;;5030632;28;20036;-71
2022/02/18 09:40:34;;;;;;;9.32;1.77;;;;;;;;;;5031091;28;20048;-69
2022/02/18 09:42:59;;;;;;;11.13;1.50;;;;;;;;;;5029000;28;20377;-70
2022/02/18 09:45:25;;;;;;;28.67;3.38;;;;;;;;;;5030147;28;20081;-70
2022/02/18 09:47:51;;;;;;;2.40;0.93;;;;;;;;;;5029723;28;20025;-71
2022/02/18 09:50:16;;;;;;;14.63;2.35;;;;;;;;;;5033960;28;20057;-72
2022/02/18 09:52:41;;;;;;;7.80;1.38;;;;;;;;;;5033478;28;20056;-70
2022/02/18 09:55:07;;;;;;;11.00;2.00;;;;;;;;;;5033858;28;20075;-71
2022/02/18 09:57:33;;;;;;;2.10;0.60;;;;;;;;;;5033182;28;20279;-72
2022/02/18 09:59:59;;;;;;;4.90;1.00;;;;;;;;;;5033387;28;20044;-72
2022/02/18 10:02:24;;;;;;;7.18;1.23;;;;;;;;;;5031441;28;20101;-70
2022/02/18 10:04:49;;;;;;;5.00;0.90;;;;;;;;;;5033780;28;20036;-71
2022/02/18 10:07:15;;;;;;;17.55;2.40;;;;;;;;;;5034162;28;20026;-70
2022/02/18 10:09:44;;;;;;;2.70;0.70;;;;;;;;;;5031568;28;20053;-71
2022/02/18 10:12:10;;;;;;;2.78;0.43;;;;;;;;;;5025446;28;20021;-70
2022/02/18 10:14:54;;;;;;;15.30;1.83;;;;;;;;;;5034233;28;20551;-71
2022/02/18 10:17:20;;;;;;;5.53;1.00;;;;;;;;;;5024509;28;20393;-70
2022/02/18 10:19:49;;;;;;;7.57;1.13;;;;;;;;;;5033283;28;20025;-72
2022/02/18 10:22:21;;;;;;;6.80;1.27;;;;;;;;;;5028547;28;20018;-70
2022/02/18 10:24:47;;;;;;;8.00;1.75;;;;;;;;;;5023285;28;20105;-70
2022/02/18 10:27:15;;;;;;;12.50;1.90;;;;;;;;;;5023951;28;20167;-71
2022/02/18 10:29:40;;;;;;;3.83;0.85;;;;;;;;;;5032085;28;20021;-70
2022/02/18 10:32:15;;;;;;;3.38;1.23;;;;;;;;;;5015477;28;20159;-71
2022/02/18 10:35:01;;;;;;;5.53;1.13;;;;;;;;;;5032542;28;20505;-71
2022/02/18 10:37:27;;;;;;;2.53;0.63;;;;;;;;;;5030021;28;20043;-71
2022/02/18 10:40:08;;;;;;;1.65;0.73;;;;;;;;;;5023786;28;20021;-72
2022/02/18 10:42:33;;;;;;;;;;;;;;;;;;5029248;28;20033;-72
2022/02/18 10:45:11;;;;;;;10.70;1.15;;;;;;;;;;5033003;28;19915;-70
2022/02/18 10:47:37;;;;;;;1.27;0.60;;;;;;;;;;5033371;28;20270;-71
2022/02/18 10:50:12;;;;;;;1.48;0.38;;;;;;;;;;5032649;28;20025;-70
2022/02/18 10:52:37;;;;;;;4.57;0.70;;;;;;;;;;5031363;28;20037;-72
2022/02/18 10:55:06;;;;;;;2.60;1.10;;;;;;;;;;5029319;28;20025;-71
2022/02/18 10:57:31;;;;;;;0.95;0.40;;;;;;;;;;5022029;28;20283;-70
2022/02/18 10:59:57;;;;;;;0.90;0.50;;;;;;;;;;5031594;28;20022;-72
2022/02/18 11:02:38;;;;;;;1.60;0.55;;;;;;;;;;5031056;28;20033;-70
2022/02/18 11:05:21;;;;;;;6.97;1.75;;;;;;;;;;5032060;28;20025;-71
2022/02/18 11:07:47;;;;;;;1.27;0.50;;;;;;;;;;5026327;28;20030;-70
2022/02/18 11:10:32;;;;;;;2.15;0.65;;;;;;;;;;5031654;28;20367;-71
2022/02/18 11:12:57;;;;;;;2.13;0.57;;;;;;;;;;5033516;28;20033;-72
2022/02/18 11:15:23;;;;;;;2.05;0.60;;;;;;;;;;5031869;28;20021;-72
2022/02/18 11:17:49;;;;;;;3.80;0.52;;;;;;;;;;5027215;28;20486;-71
2022/02/18 11:20:15;;;;;;;2.35;0.38;;;;;;;;;;5027701;28;20049;-72
2022/02/18 11:22:40;;;;;;;1.35;0.35;;;;;;;;;;5029549;28;20156;-72
2022/02/18 11:25:07;;;;;;;1.85;0.30;;;;;;;;;;5031049;28;20116;-70
2022/02/18 11:27:34;;;;;;;0.20;0.20;;;;;;;;;;5031557;28;20482;-71
2022/02/18 11:30:00;;;;;;;0.90;0.40;;;;;;;;;;5032054;28;20056;-71
2022/02/18 11:32:27;;;;;;;0.30;0.20;;;;;;;;;;5031747;28;20147;-71
2022/02/18 11:35:11;;;;;;;0.32;0.20;;;;;;;;;;5032232;28;20275;-71
2022/02/18 11:37:42;;;;;;;1.98;0.30;;;;;;;;;;5033894;28;20108;-71
2022/02/18 11:40:29;;;;;;;0.20;0.15;;;;;;;;;;5032399;28;20040;-70
2022/02/18 11:43:01;;;;;;;1.55;0.52;;;;;;;;;;5026468;28;20041;-72
2022/02/18 11:45:27;;;;;;;0.28;0.20;;;;;;;;;;5022778;28;20046;-72
2022/02/18 11:47:52;;;;;;;0.60;0.30;;;;;;;;;;5030656;28;20068;-72
2022/02/18 11:50:18;;;;;;;1.35;0.38;;;;;;;;;;5030887;28;20033;-74
2022/02/18 11:52:44;;;;;;;0.40;0.20;;;;;;;;;;5031108;28;20100;-72
2022/02/18 11:55:26;;;;;;;1.23;0.55;;;;;;;;;;5030923;28;20051;-71
2022/02/18 11:58:04;;;;;;;0.30;0.10;;;;;;;;;;5030294;28;20413;-71
2022/02/18 12:00:43;;;;;;;0.60;0.10;;;;;;;;;;5030569;28;20073;-72
2022/02/18 12:03:09;;;;;;;0.20;0.20;;;;;;;;;;5022208;28;20021;-71
2022/02/18 12:05:34;;;;;;;0.88;0.35;;;;;;;;;;5030223;28;20503;-71
2022/02/18 12:07:59;;;;;;;0.08;0.08;;;;;;;;;;5032747;28;20024;-71
2022/02/18 12:10:27;;;;;;;0.45;0.20;;;;;;;;;;5032398;28;20103;-71
2022/02/18 12:13:05;;;;;;;0.30;0.20;;;;;;;;;;5031800;28;20017;-71
2022/02/18 12:15:33;;;;;;;0.65;0.30;;;;;;;;;;5029663;28;20025;-72
2022/02/18 12:18:07;;;;;;;1.20;0.50;;;;;;;;;;5030660;28;20539;-71
2022/02/18 12:20:34;;;;;;;1.52;0.50;;;;;;;;;;5030989;28;20036;-72
2022/02/18 12:23:18;;;;;;;4.47;0.40;;;;;;;;;;5028983;28;20022;-72
2022/02/18 12:25:43;;;;;;;7.00;0.55;;;;;;;;;;5031277;28;20021;-71
2022/02/18 12:28:21;;;;;;;2.63;0.38;;;;;;;;;;5030295;28;20410;-71
2022/02/18 12:30:57;;;;;;;1.67;0.50;;;;;;;;;;5030236;28;20122;-71
2022/02/18 12:33:22;;;;;;;0.43;0.25;;;;;;;;;;5029612;28;20021;-71
2022/02/18 12:35:47;;;;;;;0.30;0.25;;;;;;;;;;5029497;28;20013;-72
2022/02/18 12:38:14;;;;;;;0.52;0.30;;;;;;;;;;5030923;28;20025;-71
2022/02/18 12:40:41;;;;;;;0.40;0.20;;;;;;;;;;5028764;28;20422;-72
2022/02/18 12:43:08;;;;;;;2.22;0.30;;;;;;;;;;5025926;28;20017;-70
2022/02/18 12:45:40;;;;;;;1.75;0.40;;;;;;;;;;5029195;28;20029;-70
2022/02/18 12:48:06;;;;;;;1.00;0.20;;;;;;;;;;5030382;28;20021;-71
2022/02/18 12:50:33;;;;;;;0.82;0.43;;;;;;;;;;5027019;28;20421;-70
2022/02/18 12:52:58;;;;;;;4.70;0.30;;;;;;;;;;5026581;28;20096;-72
2022/02/18 12:55:24;;;;;;;0.35;0.20;;;;;;;;;;5029760;28;20100;-72
2022/02/18 12:57:50;;;;;;;1.10;0.25;;;;;;;;;;5030386;28;20444;-72
2022/02/18 13:00:16;;;;;;;0.20;0.20;;;;;;;;;;5030006;28;20108;-72
2022/02/18 13:02:42;;;;;;;0.10;0.10;;;;;;;;;;5028512;28;20099;-73
2022/02/18 13:05:12;;;;;;;1.25;0.93;;;;;;;;;;5030256;28;20022;-72
2022/02/18 13:07:38;;;;;;;1.10;0.50;;;;;;;;;;5030354;28;20029;-71
2022/02/18 13:10:05;;;;;;;1.70;0.28;;;;;;;;;;5031043;28;20144;-71
2022/02/18 13:12:33;;;;;;;1.65;0.40;;;;;;;;;;5030594;28;20025;-72
2022/02/18 13:15:10;;;;;;;1.35;0.30;;;;;;;;;;5030289;28;20617;-72
2022/02/18 13:17:35;;;;;;;0.38;0.30;;;;;;;;;;5029686;28;20474;-72
2022/02/18 13:20:01;;;;;;;0.95;0.30;;;;;;;;;;5027964;28;20061;-71
2022/02/18 13:22:33;;;;;;;0.93;0.30;;;;;;;;;;5028774;28;20025;-70
2022/02/18 13:24:59;;;;;;;1.13;0.35;;;;;;;;;;5021910;28;20025;-72
2022/02/18 13:27:24;;;;;;;0.97;0.30;;;;;;;;;;5035610;28;20101;-72
2022/02/18 13:29:54;;;;;;;0.40;0.15;;;;;;;;;;5033783;28;20267;-72
2022/02/18 13:32:19;;;;;;;0.90;0.30;;;;;;;;;;5031641;28;20021;-72
2022/02/18 13:34:49;;;;;;;1.27;0.38;;;;;;;;;;5033392;28;20029;-71
2022/02/18 13:37:17;;;;;;;0.52;0.38;;;;;;;;;;5032858;28;20025;-71
2022/02/18 13:39:46;;;;;;;2.05;0.30;;;;;;;;;;5031977;28;20064;-72
2022/02/18 13:42:11;;;;;;;0.77;0.32;;;;;;;;;;5034302;28;20143;-71
2022/02/18 13:44:36;;;;;;;0.20;0.10;;;;;;;;;;5034194;28;20108;-71
2022/02/18 13:47:05;;;;;;;2.87;0.30;;;;;;;;;;5032761;28;20508;-71
2022/02/18 13:49:31;;;;;;;2.38;0.40;;;;;;;;;;5035674;28;20321;-71
2022/02/18 13:51:56;;;;;;;1.73;0.40;;;;;;;;;;5035468;28;20029;-72
2022/02/18 13:54:32;;;;;;;1.77;0.32;;;;;;;;;;5032825;28;20021;-73
2022/02/18 13:57:04;;;;;;;0.55;0.30;;;;;;;;;;5031043;28;20409;-70
2022/02/18 13:59:30;;;;;;;0.20;0.10;;;;;;;;;;5032933;28;20025;-70
2022/02/18 14:01:57;;;;;;;3.97;0.35;;;;;;;;;;5022844;28;20708;-71
2022/02/18 14:04:23;;;;;;;0.60;0.30;;;;;;;;;;5034076;28;20105;-71
2022/02/18 14:07:01;;;;;;;3.17;0.60;;;;;;;;;;5035338;28;20033;-71
2022/02/18 14:09:40;;;;;;;1.55;0.20;;;;;;;;;;5033096;28;20796;-71
2022/02/18 14:12:05;;;;;;;0.55;0.25;;;;;;;;;;5032661;28;20030;-71
2022/02/18 14:14:30;;;;;;;1.20;0.30;;;;;;;;;;5033243;28;20022;-71
2022/02/18 14:16:57;;;;;;;1.17;0.53;;;;;;;;;;5032998;28;20033;-70
2022/02/18 14:19:23;;;;;;;1.00;0.20;;;;;;;;;;5033289;28;20326;-71
2022/02/18 14:21:58;;;;;;;0.45;0.30;;;;;;;;;;5032721;28;20026;-72
2022/02/18 14:24:34;;;;;;;1.48;0.40;;;;;;;;;;5033429;28;20017;-72
2022/02/18 14:26:59;;;;;;;0.85;0.20;;;;;;;;;;5031513;28;20111;-71
2022/02/18 14:29:25;;;;;;;0.70;0.13;;;;;;;;;;5032871;28;20065;-72
2022/02/18 14:31:54;;;;;;;0.20;0.20;;;;;;;;;;5033208;28;20032;-71